Time;durP1;ratioP1;P1;durP2;ratioP2;P2;SDS_P1;SDS_P2;PMS_P1;PMS_P2;Temp;Humidity;BMP_temperature;BMP_pressure;BME280_temperature;BME280_humidity;BME280_pressure;Samples;Min_cycle;Max_cycle;Signal;HPM_P1;HPM_P2
2022/11/18 00:01:13;;;;;;;4.47;3.00;;;;;;;7.04;100.00;99553.56;6281618;22;20043;-81
2022/11/18 00:03:41;;;;;;;7.65;3.42;;;;;;;7.01;100.00;99557.81;6280649;22;20023;-81
2022/11/18 00:06:17;;;;;;;4.57;2.78;;;;;;;6.99;100.00;99565.47;6281431;22;20485;-81
2022/11/18 00:08:44;;;;;;;7.35;3.65;;;;;;;6.97;100.00;99564.44;6280639;22;20048;-80
2022/11/18 00:14:21;;;;;;;11.45;2.92;;;;;;;6.93;100.00;99567.25;6281556;22;20012;-79
2022/11/18 00:16:51;;;;;;;4.38;3.03;;;;;;;6.92;100.00;99571.06;6280679;22;20016;-78
2022/11/18 00:19:30;;;;;;;3.80;3.20;;;;;;;6.89;100.00;99574.59;6281470;22;20016;-80
2022/11/18 00:21:56;;;;;;;9.98;3.20;;;;;;;6.89;100.00;99581.78;6281348;22;20016;-80
2022/11/18 00:24:24;;;;;;;7.60;3.45;;;;;;;6.88;100.00;99582.97;6280964;22;20055;-80
2022/11/18 00:26:51;;;;;;;5.82;3.13;;;;;;;6.85;100.00;99581.19;6280881;22;20079;-80
2022/11/18 00:29:18;;;;;;;5.90;3.22;;;;;;;6.84;100.00;99583.09;6281235;22;20021;-80
2022/11/18 00:31:45;;;;;;;6.32;3.25;;;;;;;6.83;100.00;99586.19;6280783;22;20016;-79
2022/11/18 00:34:14;;;;;;;3.60;2.92;;;;;;;6.81;100.00;99589.28;6281485;22;20445;-80
2022/11/18 00:36:42;;;;;;;4.30;3.13;;;;;;;6.82;100.00;99595.31;6280690;22;20016;-80
2022/11/18 00:39:14;;;;;;;4.53;3.00;;;;;;;6.80;100.00;99598.38;6280623;22;20020;-80
2022/11/18 00:44:26;;;;;;;7.20;3.35;;;;;;;6.77;100.00;99595.91;6280059;22;20450;-80
2022/11/18 00:46:53;;;;;;;4.43;3.00;;;;;;;6.74;100.00;99599.44;6281368;22;20091;-80
2022/11/18 00:49:20;;;;;;;4.28;3.10;;;;;;;6.74;100.00;99607.38;6281290;22;20020;-80
2022/11/18 00:51:47;;;;;;;7.78;3.40;;;;;;;6.74;100.00;99613.41;6280581;22;20016;-80
2022/11/18 00:54:13;;;;;;;6.68;3.20;;;;;;;6.73;100.00;99605.91;6280815;22;20012;-79
2022/11/18 00:56:39;;;;;;;8.38;3.33;;;;;;;6.71;100.00;99614.28;6280550;22;20469;-80
2022/11/18 00:59:06;;;;;;;4.07;3.08;;;;;;;6.72;100.00;99626.31;6281127;22;20020;-80
2022/11/18 01:01:33;;;;;;;3.10;2.90;;;;;;;6.71;100.00;99624.84;6280581;22;20012;-80
2022/11/18 01:03:59;;;;;;;3.25;2.97;;;;;;;6.71;100.00;99630.16;6281170;22;20475;-80
2022/11/18 01:06:26;;;;;;;2.92;2.72;;;;;;;6.69;100.00;99624.56;6280748;22;20434;-80
2022/11/18 01:08:53;;;;;;;9.25;3.03;;;;;;;6.67;100.00;99621.63;6280631;22;20020;-80
2022/11/18 01:14:04;;;;;;;4.13;3.20;;;;;;;6.64;100.00;99622.50;6281314;22;20008;-80
2022/11/18 01:16:31;;;;;;;4.90;2.97;;;;;;;6.64;100.00;99630.41;6280365;22;20016;-80
2022/11/18 01:18:57;;;;;;;5.95;2.95;;;;;;;6.62;100.00;99638.06;6281142;22;20023;-80
2022/11/18 01:21:24;;;;;;;5.85;2.92;;;;;;;6.62;100.00;99646.00;6280932;22;20039;-80
2022/11/18 01:23:50;;;;;;;5.78;3.22;;;;;;;6.61;100.00;99644.53;6280180;22;20485;-80
2022/11/18 01:26:17;;;;;;;11.85;3.30;;;;;;;6.60;100.00;99638.50;6281309;22;20023;-79
2022/11/18 01:28:44;;;;;;;4.00;2.72;;;;;;;6.60;100.00;99646.44;6280432;22;20046;-80
2022/11/18 01:31:18;;;;;;;4.15;3.00;;;;;;;6.59;100.00;99654.78;6280944;22;20019;-80
2022/11/18 01:33:45;;;;;;;3.88;2.97;;;;;;;6.57;100.00;99663.16;6280516;22;20016;-81
2022/11/18 01:36:24;;;;;;;3.17;2.53;;;;;;;6.57;100.00;99665.81;6281146;22;20022;-81
2022/11/18 01:38:51;;;;;;;5.15;3.00;;;;;;;6.55;100.00;99665.50;6227072;22;20024;-81
2022/11/18 01:41:20;;;;;;;6.53;3.25;;;;;;;6.53;100.00;99659.19;6281047;22;20008;-80
2022/11/18 01:44:00;;;;;;;8.93;3.13;;;;;;;6.54;100.00;99665.94;6280218;22;20083;-81
2022/11/18 01:46:29;;;;;;;3.45;3.10;;;;;;;6.51;100.00;99672.84;6280677;22;20396;-80
2022/11/18 01:49:06;;;;;;;4.00;3.00;;;;;;;6.51;100.00;99678.13;6281240;22;20083;-81
2022/11/18 01:51:37;;;;;;;5.28;2.88;;;;;;;6.48;100.00;99679.00;6279887;22;20019;-80
2022/11/18 01:54:10;;;;;;;5.60;3.20;;;;;;;6.46;100.00;99676.06;6281115;22;20019;-79
2022/11/18 01:56:49;;;;;;;5.53;2.97;;;;;;;6.45;100.00;99682.50;6280324;22;20012;-78
2022/11/18 01:59:22;;;;;;;6.05;3.25;;;;;;;6.44;100.00;99682.94;6280924;22;20481;-79
2022/11/18 02:01:48;;;;;;;5.55;3.15;;;;;;;6.42;100.00;99682.66;6280653;22;20083;-79
2022/11/18 02:04:17;;;;;;;3.78;3.05;;;;;;;6.40;100.00;99679.72;6280902;22;20020;-79
2022/11/18 02:06:44;;;;;;;3.45;3.20;;;;;;;6.38;100.00;99679.44;6279587;22;20016;-79
2022/11/18 02:09:13;;;;;;;4.18;3.22;;;;;;;6.37;100.00;99688.53;6280899;22;20082;-79
2022/11/18 02:11:50;;;;;;;6.43;3.28;;;;;;;6.37;100.00;99686.63;6280507;22;20050;-79
2022/11/18 02:14:32;;;;;;;5.57;3.33;;;;;;;6.37;100.00;99689.25;6280990;22;20043;-79
2022/11/18 02:17:12;;;;;;;4.78;3.20;;;;;;;6.37;100.00;99691.91;6281066;22;20019;-78
2022/11/18 02:20:15;;;;;;;3.58;3.17;;;;;;;6.38;100.00;99695.28;6280282;22;20024;-78
2022/11/18 02:22:42;;;;;;;6.00;3.38;;;;;;;6.34;100.00;99696.16;6279602;22;20023;-78
2022/11/18 02:25:27;;;;;;;6.25;3.17;;;;;;;6.31;100.00;99702.31;6280981;22;20020;-78
2022/11/18 02:28:18;;;;;;;8.15;3.13;;;;;;;6.29;100.00;99699.38;6280818;22;20051;-78
2022/11/18 02:31:18;;;;;;;5.90;3.45;;;;;;;6.29;100.00;99706.56;6280084;22;20466;-80
2022/11/18 02:33:58;;;;;;;3.80;2.97;;;;;;;6.26;100.00;99700.22;6279911;22;20012;-80
2022/11/18 02:36:39;;;;;;;5.53;3.17;;;;;;;6.24;100.00;99699.94;6279902;22;20368;-78
2022/11/18 02:39:12;;;;;;;8.18;3.33;;;;;;;6.22;100.00;99699.63;6280654;22;20828;-78
2022/11/18 02:41:42;;;;;;;6.53;3.30;;;;;;;6.22;100.00;99699.63;6280093;22;20023;-78
2022/11/18 02:44:13;;;;;;;6.80;3.45;;;;;;;6.20;100.00;99704.59;6280606;22;20040;-78
2022/11/18 02:46:44;;;;;;;3.73;3.30;;;;;;;6.21;100.00;99706.06;6280540;22;20047;-78
2022/11/18 02:49:38;;;;;;;5.55;3.63;;;;;;;6.23;100.00;99711.66;6280520;22;20219;-79
2022/11/18 02:52:07;;;;;;;9.23;3.00;;;;;;;6.24;100.00;99712.41;6280394;22;20024;-79
2022/11/18 02:54:36;;;;;;;3.47;3.05;;;;;;;6.24;100.00;99713.13;6279836;22;20016;-79
2022/11/18 02:57:03;;;;;;;6.18;3.15;;;;;;;6.25;100.00;99717.25;6280783;22;20016;-78
2022/11/18 02:59:30;;;;;;;9.75;3.40;;;;;;;6.25;100.00;99719.16;6279849;22;20009;-79
2022/11/18 03:01:56;;;;;;;4.32;3.28;;;;;;;6.27;100.00;99722.84;6280318;22;20039;-78
2022/11/18 03:04:25;;;;;;;3.58;3.03;;;;;;;6.28;100.00;99720.94;6279606;22;20020;-79
2022/11/18 03:07:24;;;;;;;5.57;3.50;;;;;;;6.30;100.00;99734.47;6252573;22;20034;-79
2022/11/18 03:09:51;;;;;;;5.75;3.58;;;;;;;6.31;100.00;99730.66;6280269;22;20019;-79
2022/11/18 03:12:44;;;;;;;7.72;3.40;;;;;;;6.30;100.00;99737.09;6280453;22;20413;-79
2022/11/18 03:15:43;;;;;;;5.40;3.47;;;;;;;6.31;100.00;99743.88;6280278;22;20516;-79
2022/11/18 03:18:24;;;;;;;6.10;3.67;;;;;;;6.30;100.00;99737.84;6280528;22;20047;-79
2022/11/18 03:21:13;;;;;;;6.05;3.17;;;;;;;6.31;100.00;99739.31;6278636;22;20019;-79
2022/11/18 03:23:45;;;;;;;4.00;3.40;;;;;;;6.32;100.00;99748.72;6277206;22;20048;-79
2022/11/18 03:26:21;;;;;;;9.73;4.03;;;;;;;6.34;100.00;99748.28;6278662;22;20378;-78
2022/11/18 03:28:55;;;;;;;7.55;3.58;;;;;;;6.35;100.00;99747.84;6279139;22;20028;-79
2022/11/18 03:31:27;;;;;;;7.68;3.35;;;;;;;6.35;100.00;99753.16;6279022;22;20016;-79
2022/11/18 03:34:01;;;;;;;4.20;3.00;;;;;;;6.35;100.00;99753.16;6252592;22;20024;-79
2022/11/18 03:36:34;;;;;;;5.50;3.35;;;;;;;6.36;100.00;99753.88;6279671;22;20042;-79
2022/11/18 03:39:04;;;;;;;5.97;3.35;;;;;;;6.37;100.00;99758.00;6279968;22;20019;-78
2022/11/18 03:41:35;;;;;;;7.45;3.47;;;;;;;6.38;100.00;99764.75;6279350;22;20047;-78
2022/11/18 03:44:09;;;;;;;4.22;3.25;;;;;;;6.38;100.00;99769.31;6280216;22;20023;-78
2022/11/18 03:46:38;;;;;;;7.63;3.58;;;;;;;6.40;100.00;99764.31;6279234;22;20099;-78
2022/11/18 03:49:09;;;;;;;5.63;3.58;;;;;;;6.41;100.00;99774.44;6279499;22;20012;-79
2022/11/18 03:51:42;;;;;;;6.50;3.20;;;;;;;6.42;100.00;99783.09;6279266;22;20012;-78
2022/11/18 03:54:21;;;;;;;6.68;3.60;;;;;;;6.44;100.00;99789.44;6280118;22;20102;-79
2022/11/18 03:57:01;;;;;;;5.03;3.10;;;;;;;6.44;100.00;99783.41;6279691;22;20012;-79
2022/11/18 03:59:36;;;;;;;5.22;3.70;;;;;;;6.44;100.00;99788.69;6251956;22;20023;-78
2022/11/18 04:02:09;;;;;;;5.10;3.50;;;;;;;6.44;100.00;99786.06;6279868;22;20035;-79
2022/11/18 04:04:36;;;;;;;4.03;3.60;;;;;;;6.45;100.00;99796.19;6280582;22;20020;-79
2022/11/18 04:07:10;;;;;;;4.07;3.70;;;;;;;6.44;100.00;99801.91;6281169;22;20471;-78
2022/11/18 04:09:48;;;;;;;3.53;3.00;;;;;;;6.42;100.00;99805.00;6280883;22;20441;-78
2022/11/18 04:12:17;;;;;;;7.57;3.45;;;;;;;6.40;100.00;99794.13;6281554;22;20654;-79
2022/11/18 04:14:47;;;;;;;3.95;3.00;;;;;;;6.40;100.00;99803.97;6280626;22;20020;-79
2022/11/18 04:17:18;;;;;;;3.40;3.10;;;;;;;6.38;100.00;99806.31;6281025;22;20291;-79
2022/11/18 04:19:45;;;;;;;4.53;3.47;;;;;;;6.35;100.00;99810.56;6280901;22;20008;-79
2022/11/18 04:22:12;;;;;;;3.70;2.97;;;;;;;6.32;100.00;99811.41;6281353;22;20366;-79
2022/11/18 04:24:39;;;;;;;8.57;3.45;;;;;;;6.31;100.00;99813.31;6280569;22;20548;-78
2022/11/18 04:27:06;;;;;;;8.40;3.58;;;;;;;6.28;100.00;99814.19;6281592;22;20100;-78
2022/11/18 04:29:33;;;;;;;9.55;3.55;;;;;;;6.28;100.00;99822.13;6280683;22;20476;-78
2022/11/18 04:32:00;;;;;;;5.22;3.33;;;;;;;6.29;100.00;99823.59;6280778;22;20027;-78
2022/11/18 04:34:28;;;;;;;5.63;3.50;;;;;;;6.28;100.00;99826.66;6280751;22;20020;-79
2022/11/18 04:36:54;;;;;;;4.40;3.22;;;;;;;6.26;100.00;99824.44;6280779;22;20013;-78
2022/11/18 04:39:21;;;;;;;6.05;2.63;;;;;;;6.24;100.00;99833.97;6281231;22;20016;-78
2022/11/18 04:41:54;;;;;;;4.43;3.22;;;;;;;6.21;100.00;99840.13;6280567;22;20491;-79
2022/11/18 04:44:26;;;;;;;3.95;3.08;;;;;;;6.19;100.00;99837.91;6281302;22;20027;-79
2022/11/18 04:46:54;;;;;;;5.13;3.67;;;;;;;6.17;100.00;99836.88;6280714;22;20043;-79
2022/11/18 04:49:21;;;;;;;3.78;3.30;;;;;;;6.13;100.00;99847.56;6281622;22;20020;-78
2022/11/18 04:51:48;;;;;;;6.15;3.60;;;;;;;6.10;100.00;99847.69;6280731;22;20019;-79
2022/11/18 04:54:15;;;;;;;4.25;3.08;;;;;;;6.08;100.00;99844.72;6254395;22;20131;-79
2022/11/18 04:56:43;;;;;;;6.50;3.33;;;;;;;6.06;100.00;99847.06;6280543;22;20019;-79
2022/11/18 04:59:18;;;;;;;3.92;3.53;;;;;;;6.03;100.00;99849.38;6281562;22;20043;-79
2022/11/18 05:01:46;;;;;;;4.17;3.00;;;;;;;6.00;100.00;99854.78;6280384;22;20017;-79
2022/11/18 05:04:15;;;;;;;5.50;3.55;;;;;;;5.97;100.00;99855.66;6254355;22;20023;-79
2022/11/18 05:06:42;;;;;;;3.53;3.22;;;;;;;5.97;100.00;99858.31;6280292;22;20020;-79
2022/11/18 05:09:09;;;;;;;5.57;3.30;;;;;;;5.96;100.00;99864.75;6281492;22;20019;-79
2022/11/18 05:14:24;;;;;;;3.58;3.10;;;;;;;5.96;100.00;99868.16;6281001;22;20020;-78
2022/11/18 05:16:51;;;;;;;8.13;3.53;;;;;;;5.96;100.00;99862.13;6280968;22;20019;-80
2022/11/18 05:19:17;;;;;;;3.22;2.90;;;;;;;5.96;100.00;99867.41;6281158;22;20074;-79
2022/11/18 05:21:44;;;;;;;6.88;3.90;;;;;;;5.99;100.00;99874.47;6280371;22;20082;-78
2022/11/18 05:24:10;;;;;;;5.43;3.17;;;;;;;5.98;100.00;99879.03;6281270;22;20310;-78
2022/11/18 05:26:37;;;;;;;5.00;3.53;;;;;;;5.98;100.00;99876.38;6280444;22;20078;-79
2022/11/18 05:29:04;;;;;;;4.82;3.40;;;;;;;5.99;100.00;99883.13;6280709;22;20012;-79
2022/11/18 05:31:30;;;;;;;7.07;3.90;;;;;;;5.99;100.00;99892.97;6280342;22;20040;-79
2022/11/18 05:33:57;;;;;;;5.05;3.35;;;;;;;5.98;100.00;99891.50;6281147;22;20083;-79
2022/11/18 05:36:23;;;;;;;4.88;3.25;;;;;;;5.98;100.00;99894.88;6280755;22;20016;-79
2022/11/18 05:38:50;;;;;;;4.72;3.33;;;;;;;5.99;100.00;99901.63;6280322;22;20016;-79
2022/11/18 05:44:04;;;;;;;3.40;3.10;;;;;;;6.01;100.00;99909.09;6218538;22;20016;-79
2022/11/18 05:46:31;;;;;;;6.47;3.92;;;;;;;6.00;100.00;99913.66;6280307;22;20300;-79
2022/11/18 05:48:58;;;;;;;7.75;3.92;;;;;;;5.96;100.00;99914.97;6281201;22;20445;-79
2022/11/18 05:51:24;;;;;;;4.10;3.63;;;;;;;5.93;100.00;99910.53;6280749;22;20019;-79
2022/11/18 05:53:53;;;;;;;3.97;3.45;;;;;;;5.90;100.00;99908.75;6253123;22;20016;-79
2022/11/18 05:56:26;;;;;;;7.88;3.97;;;;;;;5.91;100.00;99912.84;6281459;22;20475;-79
2022/11/18 05:58:52;;;;;;;5.85;3.80;;;;;;;5.90;100.00;99916.66;6253526;22;20016;-78
2022/11/18 06:01:31;;;;;;;6.45;3.55;;;;;;;5.89;100.00;99917.81;6280986;22;20441;-79
2022/11/18 06:04:00;;;;;;;3.72;3.42;;;;;;;5.87;100.00;99922.75;6280926;22;20060;-79
2022/11/18 06:06:26;;;;;;;5.65;3.58;;;;;;;5.84;100.00;99918.34;6280365;22;20469;-79
2022/11/18 06:09:12;;;;;;;4.97;3.38;;;;;;;5.78;100.00;99927.97;6280868;22;20012;-79
2022/11/18 06:11:45;;;;;;;3.97;3.60;;;;;;;5.74;100.00;99927.31;6280143;22;20016;-79
2022/11/18 06:14:24;;;;;;;3.50;3.20;;;;;;;5.72;100.00;99935.66;6280421;22;20111;-79
2022/11/18 06:16:54;;;;;;;3.55;3.17;;;;;;;5.68;100.00;99927.84;6280528;22;20019;-79
2022/11/18 06:19:21;;;;;;;4.80;3.70;;;;;;;5.69;100.00;99934.63;6281006;22;20017;-79
2022/11/18 06:21:48;;;;;;;7.22;3.80;;;;;;;5.67;100.00;99936.19;6280125;22;20096;-79
2022/11/18 06:24:16;;;;;;;3.80;3.50;;;;;;;5.66;100.00;99947.94;6280781;22;20027;-79
2022/11/18 06:26:43;;;;;;;6.25;3.55;;;;;;;5.65;100.00;99941.91;6280210;22;20016;-79
2022/11/18 06:29:12;;;;;;;5.18;3.60;;;;;;;5.66;100.00;99945.28;6280256;22;20045;-79
2022/11/18 06:31:39;;;;;;;4.13;3.58;;;;;;;5.69;100.00;99950.47;6280060;22;20012;-79
2022/11/18 06:34:05;;;;;;;4.65;3.78;;;;;;;5.69;100.00;99961.03;6281091;22;20404;-79
2022/11/18 06:36:32;;;;;;;7.03;3.50;;;;;;;5.72;100.00;99961.34;6279794;22;20095;-79
2022/11/18 06:39:04;;;;;;;5.13;3.92;;;;;;;5.72;100.00;99967.38;6280448;22;20016;-78
2022/11/18 06:41:31;;;;;;;5.07;3.95;;;;;;;5.70;100.00;99967.78;6279390;22;20019;-79
2022/11/18 06:43:57;;;;;;;6.15;3.70;;;;;;;5.69;100.00;99966.31;6280826;22;20020;-79
2022/11/18 06:49:10;;;;;;;3.95;3.55;;;;;;;5.68;100.00;99988.59;6280882;22;20039;-78
2022/11/18 06:51:36;;;;;;;5.43;3.33;;;;;;;5.66;100.00;99985.63;6279854;22;20012;-79
2022/11/18 06:54:03;;;;;;;7.68;3.88;;;;;;;5.65;100.00;99986.81;6280473;22;20078;-79
2022/11/18 06:56:36;;;;;;;5.63;3.75;;;;;;;5.67;100.00;99996.94;6279553;22;20012;-78
2022/11/18 06:59:03;;;;;;;7.22;4.05;;;;;;;5.64;100.00;100000.41;6280797;22;20330;-79
2022/11/18 07:01:33;;;;;;;4.25;3.85;;;;;;;5.66;100.00;100000.75;6279526;22;20345;-79
2022/11/18 07:04:00;;;;;;;6.55;4.13;;;;;;;5.65;100.00;100010.56;6252055;22;20016;-79
2022/11/18 07:06:29;;;;;;;4.10;3.58;;;;;;;5.66;100.00;100004.13;6280750;22;20016;-78
2022/11/18 07:08:56;;;;;;;5.80;3.83;;;;;;;5.67;100.00;100007.50;6281002;22;20035;-79
2022/11/18 07:11:24;;;;;;;3.85;3.55;;;;;;;5.66;100.00;100013.94;6280697;22;20012;-85
2022/11/18 07:13:51;;;;;;;4.22;3.55;;;;;;;5.65;100.00;100015.84;6280987;22;20020;-85
2022/11/18 07:16:22;;;;;;;3.67;3.30;;;;;;;5.65;100.00;100018.50;6280884;22;20474;-89
2022/11/18 07:18:50;;;;;;;9.02;4.30;;;;;;;5.67;100.00;100024.09;6279721;22;20082;-81
2022/11/18 07:21:20;;;;;;;5.03;4.03;;;;;;;5.69;100.00;100019.13;6280204;22;20027;-81
2022/11/18 07:23:47;;;;;;;5.43;3.67;;;;;;;5.72;100.00;100030.75;6280095;22;20106;-81
2022/11/18 07:26:14;;;;;;;9.30;3.80;;;;;;;5.73;100.00;100031.47;6279566;22;20075;-82
2022/11/18 07:28:41;;;;;;;3.70;3.40;;;;;;;5.74;100.00;100036.34;6252790;22;20008;-82
2022/11/18 07:31:11;;;;;;;6.70;3.90;;;;;;;5.76;100.00;100044.59;6280671;22;20012;-80
2022/11/18 07:33:38;;;;;;;4.13;3.55;;;;;;;5.77;100.00;100040.03;6250955;22;20251;-82
2022/11/18 07:36:08;;;;;;;5.82;4.00;;;;;;;5.81;100.00;100056.53;6278285;22;20016;-81
2022/11/18 07:38:35;;;;;;;6.30;3.28;;;;;;;5.83;100.00;100054.94;6278654;22;20046;-82
2022/11/18 07:41:06;;;;;;;3.53;3.22;;;;;;;5.87;100.00;100062.75;6279212;22;20050;-84
2022/11/18 07:43:34;;;;;;;5.35;3.55;;;;;;;5.88;100.00;100064.25;6282138;22;20433;-88
2022/11/18 07:46:11;;;;;;;4.72;4.00;;;;;;;5.89;100.00;100071.78;6282218;22;20038;-83
2022/11/18 07:48:37;;;;;;;6.78;4.07;;;;;;;5.94;100.00;100081.09;6282298;22;20016;-83
2022/11/18 07:51:04;;;;;;;4.18;3.72;;;;;;;6.00;100.00;100074.09;6282132;22;20012;-82
2022/11/18 07:53:32;;;;;;;8.15;4.13;;;;;;;6.05;100.00;100076.19;6281947;22;20016;-82
2022/11/18 07:55:59;;;;;;;13.35;3.75;;;;;;;6.08;100.00;100083.28;6281517;22;20016;-83
2022/11/18 07:58:25;;;;;;;8.23;3.78;;;;;;;6.12;100.00;100083.19;6282195;22;20012;-83
2022/11/18 08:00:52;;;;;;;4.47;3.90;;;;;;;6.17;100.00;100096.59;6281792;22;20019;-82
2022/11/18 08:03:18;;;;;;;5.60;3.92;;;;;;;6.22;100.00;100095.31;6254902;22;20024;-83
2022/11/18 08:05:45;;;;;;;6.45;3.60;;;;;;;6.27;100.00;100094.78;6281595;22;20078;-84
2022/11/18 08:08:11;;;;;;;10.55;3.90;;;;;;;6.31;100.00;100103.34;6281956;22;20012;-82
2022/11/18 08:10:38;;;;;;;7.28;3.80;;;;;;;6.34;100.00;100103.25;6280798;22;20036;-77
2022/11/18 08:13:04;;;;;;;12.43;3.60;;;;;;;6.38;100.00;100107.69;6281493;22;20016;-83
2022/11/18 08:15:31;;;;;;;3.92;3.58;;;;;;;6.43;100.00;100113.16;6281535;22;20016;-83
2022/11/18 08:17:57;;;;;;;4.05;3.45;;;;;;;6.46;100.00;100112.31;6281912;22;20012;-83
2022/11/18 08:20:26;;;;;;;4.78;3.45;;;;;;;6.51;100.00;100117.06;6281869;22;20019;-81
2022/11/18 08:22:52;;;;;;;3.92;3.30;;;;;;;6.54;100.00;100121.50;6281254;22;20047;-81
2022/11/18 08:25:19;;;;;;;5.82;3.88;;;;;;;6.56;100.00;100116.53;6281813;22;20080;-81
2022/11/18 08:27:45;;;;;;;4.78;3.53;;;;;;;6.61;100.00;100129.22;6281359;22;20056;-81
2022/11/18 08:30:12;;;;;;;4.75;3.60;;;;;;;6.63;100.00;100126.88;6281147;22;20013;-81
2022/11/18 08:32:39;;;;;;;4.38;3.55;;;;;;;6.65;100.00;100127.19;6280190;22;20388;-82
2022/11/18 08:35:05;;;;;;;6.90;3.55;;;;;;;6.69;100.00;100133.13;6281090;22;20023;-83
2022/11/18 08:37:36;;;;;;;4.70;3.70;;;;;;;6.75;100.00;100129.94;6280632;22;20016;-79
2022/11/18 08:40:04;;;;;;;4.55;3.60;;;;;;;6.79;100.00;100133.94;6254553;22;20028;-79
2022/11/18 08:42:30;;;;;;;4.20;3.80;;;;;;;6.84;100.00;100136.03;6281203;22;20405;-83
2022/11/18 08:45:00;;;;;;;8.82;3.83;;;;;;;6.90;100.00;100138.88;6281620;22;20012;-82
2022/11/18 08:47:26;;;;;;;5.25;3.65;;;;;;;6.93;100.00;100141.41;6254290;22;20027;-82
2022/11/18 08:49:52;;;;;;;5.20;3.70;;;;;;;6.95;100.00;100146.28;6281265;22;20413;-82
2022/11/18 08:52:19;;;;;;;5.03;3.47;;;;;;;6.99;100.00;100145.00;6281078;22;20032;-81
2022/11/18 08:54:46;;;;;;;5.90;4.15;;;;;;;7.03;100.00;100150.91;6281293;22;20016;-83
2022/11/18 08:57:12;;;;;;;7.72;3.70;;;;;;;7.05;100.00;100153.13;6281669;22;20078;-85
2022/11/18 08:59:38;;;;;;;7.50;3.58;;;;;;;7.08;100.00;100159.47;6254266;22;20424;-85
2022/11/18 09:02:05;;;;;;;7.70;4.07;;;;;;;7.11;100.00;100158.63;6254524;22;20020;-84
2022/11/18 09:04:32;;;;;;;5.15;3.65;;;;;;;7.15;100.00;100164.53;6281460;22;20020;-85
2022/11/18 09:06:58;;;;;;;5.90;3.67;;;;;;;7.15;100.00;100164.53;6254231;22;20193;-86
2022/11/18 09:09:25;;;;;;;6.35;3.60;;;;;;;7.20;100.00;100174.56;6282191;22;20019;-85
2022/11/18 09:11:51;;;;;;;4.30;3.67;;;;;;;7.21;100.00;100174.13;6280514;22;20016;-87
2022/11/18 09:14:18;;;;;;;8.18;3.83;;;;;;;7.25;100.00;100172.09;6282291;22;20361;-87
2022/11/18 09:17:04;;;;;;;4.78;3.88;;;;;;;7.29;100.00;100171.97;6281571;22;20051;-87
2022/11/18 09:19:31;;;;;;;5.25;3.53;;;;;;;7.32;100.00;100176.41;6281360;22;20020;-87
2022/11/18 09:22:13;;;;;;;6.85;3.33;;;;;;;7.38;100.00;100180.00;6281769;22;20023;-86
2022/11/18 09:24:39;;;;;;;8.93;3.83;;;;;;;7.42;100.00;100187.81;6281981;22;20322;-85
2022/11/18 09:27:07;;;;;;;5.35;3.58;;;;;;;7.43;100.00;100182.09;6281906;22;20468;-85
2022/11/18 09:29:42;;;;;;;6.20;3.63;;;;;;;7.48;100.00;100194.06;6281017;22;20020;-85
2022/11/18 09:32:08;;;;;;;8.70;3.70;;;;;;;7.52;100.00;100192.75;6281825;22;20581;-84
2022/11/18 09:34:35;;;;;;;7.22;3.92;;;;;;;7.57;100.00;100197.50;6281204;22;20503;-80
2022/11/18 09:37:05;;;;;;;6.03;3.92;;;;;;;7.62;100.00;100196.94;6280526;22;20412;-83
2022/11/18 09:39:35;;;;;;;3.55;3.25;;;;;;;7.67;100.00;100200.94;6280935;22;20132;-82
2022/11/18 09:42:33;;;;;;;4.82;4.22;;;;;;;7.69;100.00;100204.63;6281415;22;20016;-81
2022/11/18 09:45:27;;;;;;;6.63;3.83;;;;;;;7.72;100.00;100204.94;6281162;22;20024;-81
2022/11/18 09:48:09;;;;;;;7.82;3.60;;;;;;;7.74;100.00;100205.25;6281090;22;20016;-85
2022/11/18 09:50:37;;;;;;;7.63;3.90;;;;;;;7.74;100.00;100213.94;6280500;22;20454;-84
2022/11/18 09:53:24;;;;;;;6.55;3.72;;;;;;;7.75;100.00;100212.03;6281754;22;20020;-87
2022/11/18 09:55:52;;;;;;;7.13;3.70;;;;;;;7.74;100.00;100215.84;6280917;22;20458;-87
2022/11/18 09:58:37;;;;;;;6.63;3.60;;;;;;;7.76;100.00;100216.91;6281460;22;20065;-86
2022/11/18 10:01:12;;;;;;;5.40;3.70;;;;;;;7.80;100.00;100232.69;6281338;22;20084;-86
2022/11/18 10:03:39;;;;;;;6.65;3.20;;;;;;;7.82;100.00;100228.41;6282179;22;20035;-90
2022/11/18 10:06:15;;;;;;;5.07;3.22;;;;;;;7.85;100.00;100227.56;6281360;22;20020;-87
2022/11/18 10:11:42;;;;;;;8.70;3.83;;;;;;;7.94;100.00;100248.09;6188214;23;20234;-83
2022/11/18 10:14:50;;;;;;;4.65;3.75;;;;;;;7.99;100.00;100247.53;6188118;23;20018;-83
2022/11/18 10:17:45;;;;;;;4.85;3.50;;;;;;;8.06;100.00;100254.47;6187607;23;20018;-85
2022/11/18 10:20:33;;;;;;;6.80;3.67;;;;;;;8.08;100.00;100257.44;6189763;23;20422;-85
2022/11/18 10:23:13;;;;;;;11.20;3.80;;;;;;;8.01;100.00;100264.47;6187970;23;20017;-84
2022/11/18 10:25:39;;;;;;;7.50;3.80;;;;;;;7.99;100.00;100266.09;6187174;23;20022;-84
2022/11/18 10:28:28;;;;;;;5.47;3.55;;;;;;;7.99;100.00;100268.75;6189536;23;20044;-84
2022/11/18 10:31:09;;;;;;;10.50;4.05;;;;;;;8.00;100.00;100268.28;6189587;23;20024;-85
2022/11/18 10:33:37;;;;;;;3.80;3.50;;;;;;;8.07;100.00;100274.50;6189190;23;20077;-85
2022/11/18 10:36:36;;;;;;;4.53;4.10;;;;;;;8.14;100.00;100269.69;6189272;23;20049;-84
2022/11/18 10:39:14;;;;;;;12.20;4.22;;;;;;;8.22;100.00;100268.28;6188974;23;20013;-84
2022/11/18 10:41:45;;;;;;;8.63;4.00;;;;;;;8.28;100.00;100274.50;6189478;23;20017;-84
2022/11/18 10:44:28;;;;;;;6.07;3.60;;;;;;;8.38;100.00;100270.00;6189662;23;20037;-84
2022/11/18 10:46:55;;;;;;;7.28;4.00;;;;;;;8.42;100.00;100270.59;6163539;23;20025;-85
2022/11/18 10:49:21;;;;;;;5.55;4.30;;;;;;;8.48;100.00;100276.81;6189396;23;20466;-85
2022/11/18 10:52:09;;;;;;;5.05;4.00;;;;;;;8.56;100.00;100275.38;6189194;23;20024;-86
2022/11/18 10:54:36;;;;;;;8.43;4.38;;;;;;;8.61;100.00;100277.47;6162181;23;20017;-85
2022/11/18 10:57:09;;;;;;;6.18;4.00;;;;;;;8.71;100.00;100272.19;6189703;23;20021;-85
2022/11/18 10:59:45;;;;;;;8.90;4.22;;;;;;;8.79;100.00;100268.84;6189377;23;20425;-85
2022/11/18 11:02:33;;;;;;;8.02;3.83;;;;;;;8.89;100.00;100269.59;6189450;23;20017;-85
2022/11/18 11:05:16;;;;;;;6.90;3.58;;;;;;;8.94;100.00;100274.31;6187795;23;20020;-85
2022/11/18 11:07:42;;;;;;;4.05;3.53;;;;;;;8.97;99.95;100278.75;6188344;23;20053;-85
2022/11/18 11:10:09;;;;;;;3.70;3.38;;;;;;;8.99;99.78;100281.72;6188926;23;20417;-85
2022/11/18 11:12:46;;;;;;;6.80;4.10;;;;;;;9.02;99.55;100276.28;6162214;23;20076;-85
2022/11/18 11:15:23;;;;;;;8.32;4.07;;;;;;;9.04;99.15;100286.44;6190686;23;20230;-84
2022/11/18 11:20:42;;;;;;;;;;;;;;;9.11;99.59;100291.50;6188967;23;20447;-86
2022/11/18 11:23:10;;;;;;;7.60;3.67;;;;;;;9.13;98.93;100286.47;6188119;23;19921;-86
2022/11/18 11:25:53;;;;;;;9.85;4.95;;;;;;;9.21;98.39;100287.66;6188792;23;20017;-87
2022/11/18 11:29:04;;;;;;;7.60;3.85;;;;;;;9.24;97.88;100292.09;6188023;23;20013;-86
2022/11/18 11:31:51;;;;;;;6.70;3.90;;;;;;;9.24;97.97;100289.44;6188515;23;20100;-85
2022/11/18 11:34:50;;;;;;;12.30;4.78;;;;;;;9.26;97.06;100289.72;6186989;23;20459;-86
2022/11/18 11:37:27;;;;;;;6.60;3.85;;;;;;;9.28;97.59;100299.91;6164982;23;20021;-82
2022/11/18 11:40:05;;;;;;;6.90;4.03;;;;;;;9.34;97.78;100298.88;6188690;23;20029;-84
2022/11/18 11:43:02;;;;;;;9.40;4.03;;;;;;;9.49;98.06;100293.75;6188948;23;20410;-85
2022/11/18 11:45:50;;;;;;;7.68;4.22;;;;;;;9.61;98.11;100292.84;6189370;23;20020;-86
2022/11/18 11:49:05;;;;;;;7.10;3.97;;;;;;;9.60;97.25;100301.25;6188746;23;20485;-88
2022/11/18 11:51:39;;;;;;;5.35;3.90;;;;;;;9.54;96.47;100298.47;6188586;23;20088;-88
2022/11/18 11:54:14;;;;;;;11.02;4.38;;;;;;;9.51;96.25;100301.28;6189110;23;20356;-88
2022/11/18 11:57:03;;;;;;;5.55;4.05;;;;;;;9.51;96.34;100298.63;6188515;23;20044;-84
2022/11/18 11:59:41;;;;;;;8.20;3.92;;;;;;;9.54;96.27;100303.78;6188543;23;20024;-84
2022/11/18 12:02:32;;;;;;;7.30;4.38;;;;;;;9.60;96.15;100306.56;6188589;23;20447;-83
2022/11/18 12:05:23;;;;;;;6.60;4.60;;;;;;;9.62;96.12;100304.22;6188303;23;20014;-83
2022/11/18 12:07:57;;;;;;;7.22;4.75;;;;;;;9.59;95.54;100305.88;6188480;23;20093;-84
2022/11/18 12:10:36;;;;;;;8.43;4.22;;;;;;;9.61;95.81;100314.09;6188421;23;20443;-80
2022/11/18 12:13:40;;;;;;;6.82;4.55;;;;;;;9.62;95.35;100317.50;6188585;23;20021;-81
2022/11/18 12:16:35;;;;;;;5.20;4.15;;;;;;;9.60;94.83;100317.94;6187958;23;20017;-83
2022/11/18 12:19:13;;;;;;;5.60;4.03;;;;;;;9.60;94.95;100325.91;6188026;23;20455;-85